Time;durP1;ratioP1;P1;durP2;ratioP2;P2;SDS_P1;SDS_P2;PMS_P1;PMS_P2;Temp;Humidity;BMP_temperature;BMP_pressure;BME280_temperature;BME280_humidity;BME280_pressure;Samples;Min_cycle;Max_cycle;Signal;HPM_P1;HPM_P2
2021/12/17 00:00:42;;;;;;;17.42;10.15;;;;;;;4.52;100.00;101414.47;5131244;28;20056;-76
2021/12/17 00:03:18;;;;;;;14.75;9.15;;;;;;;4.52;100.00;101404.78;5131474;28;20047;-75
2021/12/17 00:06:07;;;;;;;15.43;9.98;;;;;;;4.45;100.00;101412.88;5130841;28;20400;-75
2021/12/17 00:08:35;;;;;;;16.00;9.45;;;;;;;4.52;100.00;101412.72;5131757;28;20044;-78
2021/12/17 00:11:05;;;;;;;15.15;9.30;;;;;;;4.50;100.00;101432.13;5131145;28;20038;-75
2021/12/17 00:13:34;;;;;;;14.23;8.48;;;;;;;4.65;100.00;101425.75;5131132;28;20043;-75
2021/12/17 00:16:11;;;;;;;16.27;9.55;;;;;;;4.48;100.00;101418.97;5130766;28;20046;-75
2021/12/17 00:18:53;;;;;;;15.35;9.20;;;;;;;4.52;100.00;101415.34;5130806;28;20464;-76
2021/12/17 00:49:28;;;;;;;12.98;7.32;;;;;;;4.38;100.00;101398.00;5130308;28;20051;-74
2021/12/17 00:51:58;;;;;;;15.13;8.73;;;;;;;4.36;100.00;101395.41;5130138;28;20039;-75
2021/12/17 00:54:35;;;;;;;11.80;7.80;;;;;;;4.35;100.00;101385.72;5130247;28;20046;-76
2021/12/17 00:57:08;;;;;;;12.70;7.72;;;;;;;4.29;100.00;101386.69;5130193;28;20548;-75
2021/12/17 00:59:36;;;;;;;12.02;7.88;;;;;;;4.29;100.00;101393.75;5109759;28;20135;-75
2021/12/17 01:02:09;;;;;;;12.48;7.80;;;;;;;4.22;100.00;101392.09;5116766;28;20055;-76
2021/12/17 01:04:40;;;;;;;12.30;7.75;;;;;;;4.25;100.00;101392.06;5116730;28;20093;-77
2021/12/17 01:07:09;;;;;;;10.88;6.85;;;;;;;4.25;100.00;101397.34;5116524;28;20438;-76
2021/12/17 01:09:39;;;;;;;11.05;6.47;;;;;;;4.32;100.00;101396.31;5098023;28;20047;-77
2021/12/17 01:12:08;;;;;;;11.77;7.30;;;;;;;4.26;100.00;101385.88;5116345;28;20496;-76
2021/12/17 01:14:37;;;;;;;10.93;6.53;;;;;;;4.27;100.00;101383.22;5116008;28;20454;-76
2021/12/17 01:17:05;;;;;;;9.48;4.95;;;;;;;4.30;100.00;101387.56;5115814;28;20065;-77
2021/12/17 01:20:06;;;;;;;11.55;6.88;;;;;;;4.32;100.00;101385.75;5115852;28;20040;-77
2021/12/17 01:22:49;;;;;;;10.77;5.95;;;;;;;4.28;100.00;101384.06;5116141;28;20040;-70
2021/12/17 01:25:36;;;;;;;12.23;5.90;;;;;;;4.31;100.00;101390.16;5116355;28;20066;-71
2021/12/17 01:36:21;;;;;;;9.65;5.10;;;;;;;4.23;100.00;101380.63;5115988;28;20047;-72
2021/12/17 01:44:27;;;;;;;10.35;5.20;;;;;;;4.16;100.00;101360.50;5101906;28;20063;-71
2021/12/17 01:46:56;;;;;;;9.25;5.35;;;;;;;4.22;100.00;101352.47;5115031;28;20069;-71
2021/12/17 01:55:45;;;;;;;8.18;4.55;;;;;;;4.27;100.00;101346.22;5114923;28;20055;-71
2021/12/17 02:00:43;;;;;;;10.52;5.05;;;;;;;4.19;100.00;101348.13;5081375;28;20059;-70
2021/12/17 02:03:15;;;;;;;11.48;5.53;;;;;;;4.23;100.00;101339.22;5115062;28;20044;-78
2021/12/17 02:05:44;;;;;;;9.50;5.20;;;;;;;4.22;100.00;101352.47;5115145;28;20071;-79
2021/12/17 02:08:13;;;;;;;6.32;2.65;;;;;;;4.24;100.00;101342.75;5115298;28;20040;-75
2021/12/17 02:23:04;;;;;;;9.18;4.13;;;;;;;4.31;100.00;101320.63;5152357;27;20047;-75
2021/12/17 02:31:16;;;;;;;9.23;4.75;;;;;;;4.15;100.00;101334.97;5151830;27;20051;-76
2021/12/17 02:33:47;;;;;;;9.35;4.95;;;;;;;4.24;100.00;101351.53;5151874;27;20138;-77
2021/12/17 02:36:20;;;;;;;7.05;4.07;;;;;;;4.25;100.00;101341.88;5151610;27;20047;-73
2021/12/17 02:38:50;;;;;;;11.57;5.45;;;;;;;4.12;100.00;101351.75;5151503;27;20477;-75
2021/12/17 02:46:51;;;;;;;8.10;4.60;;;;;;;4.17;100.00;101327.94;5151672;27;20039;-76
2021/12/17 02:49:20;;;;;;;7.97;3.80;;;;;;;4.20;100.00;101319.94;5151764;27;20433;-76
2021/12/17 02:51:50;;;;;;;7.93;4.25;;;;;;;4.30;100.00;101313.59;5151519;27;20437;-76
2021/12/17 02:54:20;;;;;;;8.50;3.63;;;;;;;4.31;100.00;101308.28;5151658;27;20043;-76
2021/12/17 02:56:49;;;;;;;7.55;3.42;;;;;;;4.42;100.00;101308.09;5151202;27;20050;-76
2021/12/17 02:59:18;;;;;;;5.55;2.95;;;;;;;4.46;100.00;101306.28;5151257;27;20042;-76
2021/12/17 03:01:49;;;;;;;8.00;3.60;;;;;;;4.42;100.00;101308.09;5151227;27;20043;-77
2021/12/17 03:04:19;;;;;;;7.35;3.70;;;;;;;4.39;100.00;101294.94;5151503;27;20049;-76
2021/12/17 03:06:47;;;;;;;6.80;2.83;;;;;;;4.44;100.00;101322.16;5151521;27;20043;-78
2021/12/17 03:09:20;;;;;;;6.50;3.30;;;;;;;4.47;100.00;101300.97;5151379;27;20088;-76
2021/12/17 03:11:52;;;;;;;8.18;3.17;;;;;;;4.51;100.00;101310.56;5151082;27;20058;-78
2021/12/17 03:14:20;;;;;;;7.55;2.67;;;;;;;4.50;100.00;101292.97;5149975;27;20404;-76
2021/12/17 03:16:59;;;;;;;8.00;3.70;;;;;;;4.53;100.00;101295.53;5151062;27;20039;-80
2021/12/17 03:23:26;;;;;;;7.68;3.13;;;;;;;4.47;100.00;101300.97;5151323;27;20467;-75
2021/12/17 03:25:01;;;;;;;6.78;2.85;;;;;;;4.50;100.00;101310.59;5149804;27;20042;-75
2021/12/17 03:27:31;;;;;;;8.00;3.38;;;;;;;4.41;100.00;101295.78;5151101;27;20037;-79
2021/12/17 03:30:00;;;;;;;7.03;3.10;;;;;;;4.47;100.00;101323.88;5149498;27;20039;-80
2021/12/17 03:32:28;;;;;;;8.27;3.28;;;;;;;4.31;100.00;101321.50;5144228;27;20045;-78
2021/12/17 03:34:56;;;;;;;6.93;3.90;;;;;;;4.34;100.00;101320.56;5136447;27;20484;-79
2021/12/17 03:37:24;;;;;;;8.82;3.65;;;;;;;4.34;100.00;101324.97;5135667;27;20047;-78
2021/12/17 03:39:52;;;;;;;6.93;3.53;;;;;;;4.34;100.00;101310.00;5136739;27;20601;-79
2021/12/17 03:42:21;;;;;;;10.02;3.78;;;;;;;4.33;100.00;101310.91;5136908;27;20046;-78
2021/12/17 03:44:50;;;;;;;8.18;3.67;;;;;;;4.33;100.00;101302.97;5136531;27;20069;-78
2021/12/17 03:47:19;;;;;;;7.93;3.80;;;;;;;4.32;100.00;101311.78;5136994;27;20039;-78
2021/12/17 03:49:48;;;;;;;7.60;3.88;;;;;;;4.19;100.00;101321.72;5136782;27;20484;-79
2021/12/17 03:52:17;;;;;;;8.65;4.20;;;;;;;4.22;100.00;101321.66;5136784;27;20046;-78
2021/12/17 03:54:46;;;;;;;9.57;3.20;;;;;;;4.28;100.00;101320.69;5136400;27;20035;-78
2021/12/17 03:57:17;;;;;;;5.03;1.90;;;;;;;4.29;100.00;101322.44;5136371;27;20092;-78
2021/12/17 03:59:46;;;;;;;8.80;4.50;;;;;;;4.27;100.00;101324.22;5136394;27;20050;-77
2021/12/17 04:02:16;;;;;;;8.73;4.20;;;;;;;4.26;100.00;101318.06;5136100;27;20040;-77
2021/12/17 04:04:45;;;;;;;7.82;3.67;;;;;;;4.28;100.00;101318.03;5136684;27;20096;-77
2021/12/17 04:07:15;;;;;;;9.05;3.60;;;;;;;4.52;100.00;101307.03;5136154;27;20043;-77
2021/12/17 04:09:43;;;;;;;5.05;2.50;;;;;;;4.62;100.00;101314.78;5136488;27;20582;-75
2021/12/17 04:12:16;;;;;;;4.38;2.22;;;;;;;4.71;100.00;101319.88;5135717;27;20035;-75
2021/12/17 04:14:46;;;;;;;8.57;3.07;;;;;;;4.59;100.00;101327.16;5135921;27;20051;-75
2021/12/17 04:17:22;;;;;;;6.15;3.03;;;;;;;4.63;100.00;101337.66;5135637;27;20824;-75
2021/12/17 04:19:53;;;;;;;6.95;3.05;;;;;;;4.62;100.00;101326.22;5135858;27;20053;-80
2021/12/17 04:22:21;;;;;;;6.95;2.97;;;;;;;4.62;100.00;101328.00;5136046;27;20088;-76
2021/12/17 04:24:49;;;;;;;5.70;2.80;;;;;;;4.52;100.00;101340.50;5136092;27;20082;-76
2021/12/17 04:27:17;;;;;;;7.68;2.92;;;;;;;4.46;100.00;101341.50;5135765;27;20043;-75
2021/12/17 04:29:46;;;;;;;6.65;2.92;;;;;;;4.39;100.00;101342.50;5136060;27;20074;-76
2021/12/17 04:32:16;;;;;;;7.78;3.88;;;;;;;4.15;100.00;101341.16;5135658;27;20049;-75
2021/12/17 04:34:45;;;;;;;8.10;3.85;;;;;;;4.22;100.00;101341.91;5135964;27;20548;-76
2021/12/17 04:37:14;;;;;;;7.75;3.58;;;;;;;4.28;100.00;101352.38;5135479;27;20445;-78
2021/12/17 04:39:42;;;;;;;8.55;4.10;;;;;;;4.29;100.00;101340.91;5135517;27;20039;-77
2021/12/17 04:42:16;;;;;;;10.20;4.28;;;;;;;4.19;100.00;101347.25;5138576;27;20039;-78
2021/12/17 04:44:51;;;;;;;8.65;4.05;;;;;;;3.98;100.00;101349.34;5134801;27;20096;-78
2021/12/17 04:58:26;;;;;;;8.93;4.57;;;;;;;3.97;100.00;101344.09;5135330;27;20035;-78
2021/12/17 05:01:01;;;;;;;13.43;3.85;;;;;;;4.17;100.00;101333.22;5134850;27;20118;-78
2021/12/17 05:03:30;;;;;;;8.63;3.63;;;;;;;4.35;100.00;101316.19;5135139;27;20495;-79
2021/12/17 05:05:59;;;;;;;5.60;3.25;;;;;;;4.20;100.00;101333.16;5135287;27;20122;-88
2021/12/17 05:08:29;;;;;;;6.95;3.35;;;;;;;4.23;100.00;101326.03;5135566;27;20043;-89
2021/12/17 05:11:19;;;;;;;10.27;3.33;;;;;;;4.11;100.00;101322.72;5134921;27;20096;-86
2021/12/17 05:19:27;;;;;;;7.68;3.72;;;;;;;4.38;100.00;101316.97;5134714;27;20864;-75
2021/12/17 05:21:58;;;;;;;9.27;3.65;;;;;;;4.40;100.00;101309.03;5134387;27;20051;-76
2021/12/17 05:24:26;;;;;;;7.97;3.70;;;;;;;4.21;100.00;101319.91;5134191;27;20046;-76
2021/12/17 05:26:55;;;;;;;7.30;3.83;;;;;;;4.23;100.00;101314.59;5133488;27;20457;-79
2021/12/17 05:29:24;;;;;;;7.68;4.07;;;;;;;4.07;100.00;101315.78;5134518;27;20039;-77
2021/12/17 05:31:52;;;;;;;7.05;3.72;;;;;;;4.32;100.00;101319.72;5134787;27;20122;-78
2021/12/17 05:34:20;;;;;;;8.55;4.45;;;;;;;4.29;100.00;101311.84;5134082;27;20046;-79
2021/12/17 05:36:48;;;;;;;7.88;4.43;;;;;;;4.24;100.00;101308.41;5134683;27;20039;-79
2021/12/17 05:39:18;;;;;;;8.50;3.60;;;;;;;4.27;100.00;101306.59;5134271;27;20488;-78
2021/12/17 05:41:46;;;;;;;8.85;3.85;;;;;;;4.29;100.00;101298.66;5134435;27;20054;-76
2021/12/17 05:44:17;;;;;;;9.25;3.80;;;;;;;4.26;100.00;101291.66;5134125;27;20035;-76
2021/12/17 05:46:49;;;;;;;7.80;4.07;;;;;;;4.26;100.00;101293.44;5134202;27;20442;-76
2021/12/17 05:49:18;;;;;;;7.90;4.20;;;;;;;4.27;100.00;101298.69;5134303;27;20035;-76
2021/12/17 05:51:48;;;;;;;9.35;4.32;;;;;;;4.31;100.00;101300.38;5134460;27;20049;-76
2021/12/17 05:54:18;;;;;;;11.40;4.82;;;;;;;4.31;100.00;101304.78;5133656;27;20445;-75
2021/12/17 05:56:46;;;;;;;7.80;4.20;;;;;;;4.24;100.00;101293.44;5134128;27;20039;-75
2021/12/17 05:59:15;;;;;;;6.88;3.60;;;;;;;4.30;100.00;101287.19;5133713;27;20376;-75
2021/12/17 06:01:43;;;;;;;9.52;4.55;;;;;;;4.23;100.00;101301.38;5134228;27;20043;-76
2021/12/17 06:04:12;;;;;;;11.32;5.35;;;;;;;4.16;100.00;101289.22;5133824;27;20440;-75
2021/12/17 06:06:46;;;;;;;10.13;5.82;;;;;;;4.14;100.00;101297.13;5133811;27;20043;-74
2021/12/17 06:09:14;;;;;;;8.90;4.90;;;;;;;4.12;100.00;101324.47;5133868;27;20453;-75
2021/12/17 06:11:44;;;;;;;12.27;5.45;;;;;;;4.09;100.00;101313.97;5134071;27;20039;-76
2021/12/17 06:14:12;;;;;;;13.45;6.20;;;;;;;4.09;100.00;101300.78;5133461;27;20043;-76
2021/12/17 06:16:40;;;;;;;12.95;6.32;;;;;;;4.05;100.00;101293.78;5134216;27;20043;-77
2021/12/17 06:19:09;;;;;;;13.55;5.93;;;;;;;3.97;100.00;101293.94;5133412;28;20050;-73
2021/12/17 06:21:37;;;;;;;8.15;4.57;;;;;;;3.98;100.00;101285.13;5134003;28;20396;-73
2021/12/17 06:24:07;;;;;;;9.63;4.68;;;;;;;4.02;100.00;101300.88;5133124;28;20571;-73
2021/12/17 06:26:35;;;;;;;11.25;5.35;;;;;;;4.06;100.00;101306.13;5134168;28;20049;-71
2021/12/17 06:29:05;;;;;;;10.52;5.13;;;;;;;4.03;100.00;101289.41;5133941;28;20039;-72
2021/12/17 06:31:33;;;;;;;10.90;6.07;;;;;;;3.99;100.00;101282.44;5134266;28;20039;-78
2021/12/17 06:34:01;;;;;;;10.18;5.53;;;;;;;4.02;100.00;101314.06;5134079;28;20039;-76
2021/12/17 06:36:30;;;;;;;12.73;5.72;;;;;;;4.05;100.00;101306.97;5133506;28;20040;-74
2021/12/17 06:38:59;;;;;;;10.32;5.63;;;;;;;4.01;100.00;101317.59;5133944;28;20075;-74
2021/12/17 06:41:28;;;;;;;11.18;5.40;;;;;;;4.03;100.00;101310.53;5133341;28;20043;-75
2021/12/17 06:43:58;;;;;;;11.02;5.60;;;;;;;3.95;100.00;101316.81;5133652;28;20395;-70
2021/12/17 06:46:34;;;;;;;10.15;5.35;;;;;;;3.97;100.00;101321.19;5133727;28;20049;-69
2021/12/17 06:49:22;;;;;;;12.45;5.45;;;;;;;3.99;100.00;101313.25;5133472;27;20400;-76
2021/12/17 06:54:54;;;;;;;10.23;5.13;;;;;;;3.98;100.00;101330.00;5133424;28;20568;-73
2021/12/17 07:00:34;;;;;;;14.68;5.38;;;;;;;3.98;100.00;101330.00;5133732;27;20080;-75
2021/12/17 07:06:05;;;;;;;10.48;5.07;;;;;;;4.01;100.00;101353.69;5133627;28;20066;-75
2021/12/17 07:11:37;;;;;;;10.70;5.03;;;;;;;3.97;100.00;101368.72;5137210;27;20046;-74
2021/12/17 07:22:41;;;;;;;10.52;5.28;;;;;;;3.97;100.00;101368.72;5137169;27;20043;-73
2021/12/17 07:28:12;;;;;;;10.50;5.13;;;;;;;4.00;100.00;101379.22;5170891;27;20051;-72
2021/12/17 07:33:38;;;;;;;14.13;6.13;;;;;;;4.00;100.00;101379.22;5100109;27;20055;-73
2021/12/17 07:36:11;;;;;;;9.60;5.30;;;;;;;4.01;100.00;101391.53;5136966;27;20126;-72
2021/12/17 07:38:43;;;;;;;9.63;5.25;;;;;;;4.02;100.00;101385.34;5137233;27;20441;-71
2021/12/17 07:41:11;;;;;;;10.63;5.43;;;;;;;4.06;100.00;101382.69;5136650;27;20043;-72
2021/12/17 07:43:50;;;;;;;10.80;5.20;;;;;;;4.10;100.00;101406.34;5138866;27;20035;-70
2021/12/17 07:46:20;;;;;;;13.02;6.00;;;;;;;4.08;100.00;101388.81;5135898;27;20043;-72
2021/12/17 07:48:49;;;;;;;12.50;6.13;;;;;;;4.11;100.00;101386.09;5132393;27;20039;-69
2021/12/17 07:51:22;;;;;;;9.77;5.15;;;;;;;4.14;100.00;101396.59;5146123;27;20042;-69
2021/12/17 07:53:52;;;;;;;11.35;4.85;;;;;;;4.18;100.00;101403.59;5142438;27;20051;-66
2021/12/17 07:56:23;;;;;;;10.65;5.75;;;;;;;4.17;100.00;101412.44;5153037;27;20042;-67
2021/12/17 07:58:52;;;;;;;9.20;4.82;;;;;;;4.27;100.00;101399.06;5142742;27;20042;-67
2021/12/17 08:01:20;;;;;;;9.45;4.82;;;;;;;4.25;100.00;101400.84;5146715;27;20045;-69
2021/12/17 08:03:49;;;;;;;10.00;4.93;;;;;;;4.28;100.00;101395.50;5150205;27;20087;-70
2021/12/17 08:06:19;;;;;;;9.85;5.55;;;;;;;4.31;100.00;101374.31;5139874;27;20040;-68
2021/12/17 08:08:47;;;;;;;14.07;5.40;;;;;;;4.31;100.00;101378.72;5157983;27;20043;-69
2021/12/17 08:11:16;;;;;;;8.60;4.10;;;;;;;4.40;100.00;101407.63;5148221;27;20042;-70
2021/12/17 08:13:46;;;;;;;8.60;4.75;;;;;;;4.48;100.00;101404.88;5151437;27;20396;-68
2021/12/17 08:16:29;;;;;;;10.77;5.68;;;;;;;4.44;100.00;101412.00;5137226;27;20085;-70
2021/12/17 08:27:30;;;;;;;11.27;5.10;;;;;;;4.61;100.00;101411.69;5127461;27;20480;-69
2021/12/17 08:32:50;;;;;;;10.93;4.30;;;;;;;4.72;100.00;101433.50;5099451;27;20135;-70
2021/12/17 08:35:19;;;;;;;6.45;3.65;;;;;;;4.75;100.00;101428.19;5114965;28;20039;-70
2021/12/17 08:37:49;;;;;;;9.07;4.72;;;;;;;4.80;100.00;101420.16;5114227;28;20130;-70
2021/12/17 08:40:20;;;;;;;7.10;4.20;;;;;;;4.83;100.00;101426.28;5115212;28;20044;-70
2021/12/17 08:42:48;;;;;;;8.18;4.55;;;;;;;4.92;100.00;101413.78;5115149;28;20047;-70
2021/12/17 08:45:16;;;;;;;9.65;4.20;;;;;;;4.89;100.00;101414.72;5115691;28;20105;-70
2021/12/17 08:47:44;;;;;;;8.55;3.63;;;;;;;4.90;100.00;101419.09;5115056;28;20063;-70
2021/12/17 08:50:13;;;;;;;11.68;4.70;;;;;;;4.91;100.00;101423.47;5114783;28;20038;-70
2021/12/17 08:52:41;;;;;;;9.73;4.15;;;;;;;4.99;100.00;101416.28;5114905;28;20423;-70
2021/12/17 08:55:18;;;;;;;7.65;3.35;;;;;;;4.96;100.00;101407.56;5114894;28;20039;-70
2021/12/17 08:57:49;;;;;;;10.55;4.60;;;;;;;4.89;100.00;101420.00;5115311;28;20050;-70
2021/12/17 09:00:17;;;;;;;9.20;4.50;;;;;;;4.93;100.00;101421.72;5114864;28;20130;-70
2021/12/17 09:02:45;;;;;;;10.70;4.78;;;;;;;4.92;100.00;101422.59;5114761;28;20428;-70
2021/12/17 09:05:14;;;;;;;10.95;4.75;;;;;;;4.97;100.00;101433.97;5114736;28;20039;-70
2021/12/17 09:07:42;;;;;;;11.00;4.80;;;;;;;4.97;100.00;101420.75;5114759;28;20039;-70
2021/12/17 09:10:19;;;;;;;11.60;4.38;;;;;;;5.03;100.00;101425.94;5114705;28;20118;-70
2021/12/17 09:12:49;;;;;;;9.48;4.18;;;;;;;5.10;100.00;101418.72;5114742;28;20040;-70
2021/12/17 09:15:17;;;;;;;11.45;5.00;;;;;;;5.08;100.00;101415.25;5114086;28;20553;-70
2021/12/17 09:17:46;;;;;;;10.73;4.43;;;;;;;5.09;100.00;101412.56;5114681;28;20093;-70
2021/12/17 09:20:14;;;;;;;10.35;3.95;;;;;;;5.18;100.00;101417.69;5114012;28;20059;-70
2021/12/17 09:22:42;;;;;;;8.40;4.05;;;;;;;5.21;100.00;101411.47;5114610;28;20039;-70
2021/12/17 09:25:11;;;;;;;9.93;4.22;;;;;;;5.24;100.00;101416.69;5114179;28;20046;-70
2021/12/17 09:27:39;;;;;;;8.55;3.90;;;;;;;5.38;100.00;101411.13;5114123;28;20473;-70
2021/12/17 09:30:12;;;;;;;6.57;3.45;;;;;;;5.36;100.00;101405.00;5113901;28;20442;-70
2021/12/17 09:32:40;;;;;;;9.65;4.55;;;;;;;5.47;100.00;101408.28;5114209;28;20044;-70
2021/12/17 09:35:14;;;;;;;15.38;3.63;;;;;;;5.42;100.00;101415.47;5114406;28;20054;-70
2021/12/17 09:37:44;;;;;;;8.30;4.03;;;;;;;5.32;100.00;101416.56;5114125;28;20503;-70
2021/12/17 09:40:14;;;;;;;9.02;4.43;;;;;;;5.44;100.00;101403.06;5115473;28;20035;-69
2021/12/17 09:42:45;;;;;;;8.13;4.18;;;;;;;5.54;100.00;101407.25;5114922;28;20043;-70
2021/12/17 09:45:16;;;;;;;11.63;4.70;;;;;;;5.44;100.00;101405.72;5113850;28;20057;-70
2021/12/17 09:47:47;;;;;;;6.43;3.97;;;;;;;5.41;100.00;101398.72;5114231;28;20067;-71
2021/12/17 09:50:17;;;;;;;8.00;4.53;;;;;;;5.45;100.00;101404.81;5114021;28;20069;-69
2021/12/17 09:52:46;;;;;;;9.80;4.63;;;;;;;5.45;100.00;101400.38;5114103;28;20039;-70
2021/12/17 09:55:15;;;;;;;9.88;4.55;;;;;;;5.53;100.00;101397.59;5113965;28;20105;-69
2021/12/17 09:57:43;;;;;;;10.38;4.32;;;;;;;5.58;100.00;101402.75;5114073;28;20048;-69
2021/12/17 10:00:16;;;;;;;9.80;4.30;;;;;;;5.59;100.00;101402.72;5113537;28;20051;-69
2021/12/17 10:02:46;;;;;;;7.88;4.05;;;;;;;5.62;100.00;101412.41;5113944;28;20051;-71
2021/12/17 10:05:16;;;;;;;8.85;3.47;;;;;;;5.62;100.00;101401.81;5114309;28;20035;-70
2021/12/17 10:07:48;;;;;;;8.98;3.72;;;;;;;5.61;100.00;101405.38;5147058;27;20043;-70
2021/12/17 10:10:16;;;;;;;11.13;4.22;;;;;;;5.59;100.00;101421.25;5113570;28;20035;-70
2021/12/17 10:12:46;;;;;;;9.32;4.07;;;;;;;5.66;100.00;101420.22;5113541;28;20043;-70
2021/12/17 10:15:17;;;;;;;9.55;3.90;;;;;;;5.73;100.00;101405.97;5113489;28;20043;-70
2021/12/17 10:17:54;;;;;;;7.40;3.30;;;;;;;5.75;100.00;101408.56;5113462;28;20112;-70
2021/12/17 10:20:24;;;;;;;7.57;3.47;;;;;;;5.82;100.00;101415.47;5112866;28;20089;-71
2021/12/17 10:22:58;;;;;;;5.88;2.88;;;;;;;5.85;100.00;101428.66;5113636;28;20451;-70
2021/12/17 10:25:27;;;;;;;6.50;2.70;;;;;;;5.89;100.00;101416.22;5113440;28;20122;-70
2021/12/17 10:28:00;;;;;;;7.85;3.50;;;;;;;5.92;100.00;101432.94;5113485;28;20520;-70
2021/12/17 10:30:31;;;;;;;11.27;3.78;;;;;;;5.99;100.00;101412.50;5113300;28;20043;-70
2021/12/17 10:33:02;;;;;;;9.52;3.70;;;;;;;6.05;100.00;101414.97;5112480;28;20054;-71
2021/12/17 10:35:32;;;;;;;11.35;3.90;;;;;;;6.05;100.00;101412.34;5113010;28;20096;-70
2021/12/17 10:38:03;;;;;;;7.85;3.63;;;;;;;5.95;100.00;101406.38;5113510;28;20043;-70
2021/12/17 10:40:34;;;;;;;10.18;4.20;;;;;;;5.98;100.00;101411.63;5113335;28;20048;-70
2021/12/17 10:43:13;;;;;;;9.88;4.45;;;;;;;6.06;100.00;101403.47;5115625;28;20100;-69
2021/12/17 10:45:56;;;;;;;7.40;3.50;;;;;;;6.05;100.00;101391.16;5117339;28;20047;-70
2021/12/17 10:48:28;;;;;;;8.70;3.80;;;;;;;6.12;100.00;101398.06;5117303;28;20501;-70
2021/12/17 10:51:19;;;;;;;7.85;3.42;;;;;;;6.17;100.00;101397.94;5117042;28;20077;-70
2021/12/17 10:53:54;;;;;;;7.00;2.65;;;;;;;6.22;100.00;101393.41;5115403;28;20092;-70
2021/12/17 10:56:24;;;;;;;6.32;2.70;;;;;;;6.27;100.00;101392.41;5117362;28;20054;-70
2021/12/17 10:58:58;;;;;;;6.63;2.85;;;;;;;6.25;100.00;101390.66;5117131;28;20042;-69
2021/12/17 11:01:33;;;;;;;6.65;2.70;;;;;;;6.22;100.00;101398.69;5115433;28;20052;-69
2021/12/17 11:04:21;;;;;;;8.73;2.97;;;;;;;6.32;100.00;101374.59;5117304;28;20067;-69
2021/12/17 11:06:53;;;;;;;10.57;3.05;;;;;;;6.24;100.00;101387.16;5116945;28;20047;-70
2021/12/17 11:09:35;;;;;;;14.15;3.70;;;;;;;6.29;100.00;101392.34;5117198;28;20104;-69
2021/12/17 11:12:19;;;;;;;6.22;3.13;;;;;;;6.32;100.00;101403.75;5116759;28;20100;-69
2021/12/17 11:14:48;;;;;;;6.78;3.20;;;;;;;6.27;100.00;101392.41;5116830;28;20053;-70
2021/12/17 11:17:21;;;;;;;10.07;3.20;;;;;;;6.30;100.00;101387.00;5116374;28;20101;-70
2021/12/17 11:20:09;;;;;;;8.38;3.35;;;;;;;6.31;100.00;101377.28;5116967;28;20124;-70
2021/12/17 11:22:38;;;;;;;9.20;3.55;;;;;;;6.32;100.00;101379.88;5116607;28;20079;-68
2021/12/17 11:25:10;;;;;;;8.80;3.63;;;;;;;6.38;100.00;101376.22;5116702;28;20088;-70
2021/12/17 11:27:39;;;;;;;9.45;3.13;;;;;;;6.34;100.00;101381.63;5116380;28;20044;-69
2021/12/17 11:30:11;;;;;;;11.13;3.95;;;;;;;6.36;100.00;101369.19;5116301;28;20047;-69
2021/12/17 11:32:45;;;;;;;9.77;3.60;;;;;;;6.41;100.00;101388.53;5116484;28;20118;-69
2021/12/17 11:35:15;;;;;;;7.47;3.15;;;;;;;6.42;100.00;101372.59;5116767;28;20124;-69
2021/12/17 11:37:45;;;;;;;6.55;2.97;;;;;;;6.43;100.00;101373.44;5116310;28;20043;-70
2021/12/17 11:40:21;;;;;;;7.70;2.97;;;;;;;6.39;100.00;101370.03;5116486;28;20057;-70
2021/12/17 11:43:15;;;;;;;11.10;3.78;;;;;;;6.42;100.00;101371.72;5134628;27;20042;-69
2021/12/17 11:45:44;;;;;;;6.18;2.78;;;;;;;6.35;100.00;101363.03;5136979;27;20089;-69
2021/12/17 11:48:19;;;;;;;9.95;3.53;;;;;;;6.41;100.00;101356.72;5136855;27;20039;-70
2021/12/17 11:51:05;;;;;;;14.20;4.30;;;;;;;6.45;100.00;101358.38;5136178;27;20064;-70
2021/12/17 11:53:34;;;;;;;7.43;3.20;;;;;;;6.41;100.00;101354.94;5136141;27;20138;-69
2021/12/17 11:56:04;;;;;;;5.65;3.03;;;;;;;6.43;100.00;101354.91;5136631;27;20060;-69
2021/12/17 11:58:49;;;;;;;6.90;3.10;;;;;;;6.41;100.00;101354.94;5136229;27;20039;-70
2021/12/17 12:01:51;;;;;;;8.63;3.45;;;;;;;6.49;100.00;101362.72;5136722;27;20075;-68
2021/12/17 12:04:49;;;;;;;7.28;3.40;;;;;;;6.42;100.00;101358.47;5093746;27;20051;-70
2021/12/17 12:07:20;;;;;;;10.68;3.67;;;;;;;6.42;100.00;101347.88;5136620;27;20051;-70
2021/12/17 12:09:56;;;;;;;7.47;3.13;;;;;;;6.40;100.00;101353.22;5136279;27;20075;-70
2021/12/17 12:12:27;;;;;;;12.77;4.03;;;;;;;6.38;100.00;101356.81;5135376;27;20050;-70
2021/12/17 12:14:56;;;;;;;9.48;3.28;;;;;;;6.42;100.00;101359.34;5136063;27;20039;-69
2021/12/17 12:18:02;;;;;;;9.02;3.33;;;;;;;6.42;100.00;101358.47;5135975;27;20046;-69
2021/12/17 12:20:50;;;;;;;10.23;3.50;;;;;;;6.46;100.00;101365.41;5135681;27;20062;-71
2021/12/17 12:23:20;;;;;;;8.00;2.28;;;;;;;6.47;100.00;101373.34;5136150;27;20094;-70
2021/12/17 12:26:21;;;;;;;8.20;3.40;;;;;;;6.44;100.00;101364.59;5135833;27;20043;-70
2021/12/17 12:29:09;;;;;;;10.35;3.80;;;;;;;6.44;100.00;101369.88;5135683;27;20480;-70
2021/12/17 12:31:48;;;;;;;5.30;3.05;;;;;;;6.42;100.00;101374.38;5135582;27;20540;-70
2021/12/17 12:34:17;;;;;;;7.60;3.17;;;;;;;6.41;100.00;101367.31;5136062;27;20039;-69
2021/12/17 12:37:10;;;;;;;8.10;2.85;;;;;;;6.39;100.00;101371.81;5136010;27;20039;-70
2021/12/17 12:39:42;;;;;;;6.60;2.95;;;;;;;6.34;100.00;101348.06;5135664;27;20118;-70
2021/12/17 12:42:17;;;;;;;7.95;2.70;;;;;;;6.35;100.00;101367.47;5136026;27;20046;-69
2021/12/17 12:45:09;;;;;;;7.87;2.77;;;;;;;6.39;100.00;101377.97;5135650;27;20430;-70
2021/12/17 12:47:48;;;;;;;9.52;3.80;;;;;;;6.37;100.00;101377.16;5135208;27;20548;-70
2021/12/17 12:50:19;;;;;;;10.63;4.07;;;;;;;6.40;100.00;101373.53;5135689;27;20039;-70
2021/12/17 12:52:52;;;;;;;3.08;1.90;;;;;;;6.34;100.00;101378.97;5135376;27;20092;-70
2021/12/17 12:55:23;;;;;;;8.27;3.30;;;;;;;6.34;100.00;101381.63;5135294;27;20043;-70
2021/12/17 12:57:54;;;;;;;7.85;3.08;;;;;;;6.36;100.00;101370.06;5134787;27;20035;-70
2021/12/17 13:00:26;;;;;;;11.05;3.60;;;;;;;6.40;100.00;101371.75;5135482;27;20548;-70
2021/12/17 13:02:56;;;;;;;7.18;3.10;;;;;;;6.40;100.00;101350.56;5135162;27;20051;-70
2021/12/17 13:05:26;;;;;;;8.88;3.42;;;;;;;6.41;100.00;101356.72;5134345;27;20047;-70
2021/12/17 13:07:57;;;;;;;7.10;3.50;;;;;;;6.39;100.00;101362.06;5135063;27;20399;-70
2021/12/17 13:10:27;;;;;;;11.75;3.40;;;;;;;6.38;100.00;101362.13;5135394;27;20043;-70
2021/12/17 13:13:04;;;;;;;5.07;2.50;;;;;;;6.37;100.00;101355.03;5134772;27;20038;-69
2021/12/17 13:15:43;;;;;;;7.63;3.35;;;;;;;6.35;100.00;101349.78;5135265;27;20035;-70
2021/12/17 13:21:16;;;;;;;8.70;3.30;;;;;;;6.34;100.00;101339.22;5134680;27;20047;-70
2021/12/17 13:23:51;;;;;;;7.85;3.00;;;;;;;6.31;100.00;101337.53;5134596;27;20039;-70
2021/12/17 13:26:23;;;;;;;6.10;3.08;;;;;;;6.27;100.00;101336.75;5134688;27;20495;-70
2021/12/17 13:29:03;;;;;;;7.53;3.20;;;;;;;6.27;100.00;101349.09;5134536;27;20042;-70
2021/12/17 13:31:34;;;;;;;7.13;2.80;;;;;;;6.25;100.00;101342.97;5134587;27;20499;-70
2021/12/17 13:34:07;;;;;;;8.38;3.65;;;;;;;6.15;100.00;101344.13;5134824;27;20043;-70
2021/12/17 13:36:36;;;;;;;4.35;1.48;;;;;;;6.17;100.00;101342.28;5134660;27;20130;-70
2021/12/17 13:39:06;;;;;;;8.80;2.92;;;;;;;6.17;100.00;101353.75;5134625;27;20541;-70
2021/12/17 13:41:40;;;;;;;9.13;3.80;;;;;;;6.08;100.00;101359.31;5134332;27;20050;-70
2021/12/17 13:44:28;;;;;;;7.10;3.58;;;;;;;6.07;100.00;101362.84;5133678;27;20059;-70
2021/12/17 13:47:18;;;;;;;10.88;3.80;;;;;;;6.03;100.00;101367.34;5134005;27;20039;-70
2021/12/17 13:49:49;;;;;;;8.55;3.58;;;;;;;5.99;100.00;101360.41;5134424;27;20365;-70
2021/12/17 13:52:18;;;;;;;10.18;3.67;;;;;;;5.94;100.00;101367.56;5134733;27;20099;-70
2021/12/17 13:54:49;;;;;;;8.85;4.10;;;;;;;5.99;100.00;101362.19;5134090;27;20043;-70
2021/12/17 13:57:20;;;;;;;8.18;3.28;;;;;;;5.95;100.00;101381.69;5134383;27;20043;-70
2021/12/17 13:59:48;;;;;;;9.25;3.75;;;;;;;5.86;100.00;101373.91;5132824;27;20047;-70